createdAt,value
2017-02-10T00:00:42.262Z,0
2017-02-10T00:01:52.863Z,0
2017-02-10T00:03:02.200Z,0
2017-02-10T00:04:12.800Z,0
2017-02-10T00:05:23.406Z,0
2017-02-10T00:06:32.694Z,0
2017-02-10T00:07:42.869Z,0
2017-02-10T00:08:52.650Z,0
2017-02-10T00:10:02.380Z,0
2017-02-10T00:11:12.549Z,0
2017-02-10T00:12:22.274Z,0
2017-02-10T00:13:32.021Z,0
2017-02-10T00:14:42.224Z,0
2017-02-10T00:15:51.513Z,0
2017-02-10T00:17:01.239Z,0
2017-02-10T00:18:10.525Z,0
2017-02-10T00:19:20.247Z,0
2017-02-10T00:20:30.911Z,0
2017-02-10T00:21:40.643Z,0
2017-02-10T00:22:49.935Z,0
2017-02-10T00:23:59.654Z,0
2017-02-10T00:25:09.379Z,0
2017-02-10T00:26:19.174Z,0
2017-02-10T00:27:29.350Z,0
2017-02-10T00:28:39.073Z,0
2017-02-10T00:29:49.243Z,0
2017-02-10T00:30:58.531Z,0
2017-02-10T00:32:09.174Z,0
2017-02-10T00:33:19.771Z,0
2017-02-10T00:34:29.067Z,0
2017-02-10T00:35:39.222Z,0
2017-02-10T00:36:48.953Z,0
2017-02-10T00:37:59.604Z,0
2017-02-10T00:39:08.893Z,0
2017-02-10T00:40:19.049Z,0
2017-02-10T00:41:28.777Z,0
2017-02-10T00:42:38.500Z,0
2017-02-10T00:43:48.710Z,0
2017-02-10T00:44:59.311Z,0
2017-02-10T00:46:08.596Z,0
2017-02-10T00:47:18.755Z,0
2017-02-10T00:48:28.474Z,0
2017-02-10T00:49:37.806Z,0
2017-02-10T00:50:48.406Z,0
2017-02-10T00:51:57.689Z,0
2017-02-10T00:53:06.978Z,0
2017-02-10T00:54:16.712Z,0
2017-02-10T00:55:26.941Z,0
2017-02-10T00:56:36.665Z,0
2017-02-10T00:57:46.823Z,0
2017-02-10T00:58:56.103Z,0
2017-02-10T01:00:06.270Z,0
2017-02-10T01:01:15.606Z,0
2017-02-10T01:02:25.773Z,0
2017-02-10T01:03:35.061Z,0
2017-02-10T01:04:44.385Z,0
2017-02-10T01:05:54.983Z,0
2017-02-10T01:07:04.321Z,0
2017-02-10T01:08:14.042Z,0
2017-02-10T01:09:23.328Z,0
2017-02-10T01:10:32.612Z,0
2017-02-10T01:11:42.342Z,0
2017-02-10T01:12:51.710Z,0
2017-02-10T01:14:01.876Z,0
2017-02-10T01:15:12.040Z,0
2017-02-10T01:16:21.762Z,0
2017-02-10T01:17:31.488Z,0
2017-02-10T01:18:42.148Z,0
2017-02-10T01:19:52.318Z,0
2017-02-10T01:21:02.059Z,0
2017-02-10T01:22:12.224Z,0
2017-02-10T01:23:21.505Z,0
2017-02-10T01:24:31.277Z,0
2017-02-10T01:25:41.457Z,0
2017-02-10T01:26:51.610Z,0
2017-02-10T01:28:01.364Z,0
2017-02-10T01:29:11.976Z,0
2017-02-10T01:30:22.627Z,0
2017-02-10T01:31:32.790Z,0
2017-02-10T01:32:42.072Z,0
2017-02-10T01:33:52.231Z,0
2017-02-10T01:35:02.419Z,0
2017-02-10T01:36:12.196Z,0
2017-02-10T01:37:21.915Z,0
2017-02-10T01:38:32.516Z,0
2017-02-10T01:39:42.243Z,0
2017-02-10T01:40:51.975Z,0
2017-02-10T01:42:01.749Z,0
2017-02-10T01:43:11.917Z,0
2017-02-10T01:44:21.646Z,0
2017-02-10T01:45:31.376Z,0
2017-02-10T01:46:40.657Z,0
2017-02-10T01:47:50.438Z,0
2017-02-10T01:48:59.726Z,0
2017-02-10T01:50:09.487Z,0
2017-02-10T01:51:19.654Z,0
2017-02-10T01:52:28.939Z,0
2017-02-10T01:53:38.704Z,0
2017-02-10T01:54:48.869Z,0
2017-02-10T01:55:59.024Z,0
2017-02-10T01:57:08.751Z,0
2017-02-10T01:58:18.481Z,0
2017-02-10T01:59:28.246Z,0
2017-02-10T02:00:37.961Z,0
2017-02-10T02:01:48.555Z,0
2017-02-10T02:02:58.717Z,0
2017-02-10T02:04:08.441Z,0
2017-02-10T02:05:18.670Z,0
2017-02-10T02:06:28.829Z,0
2017-02-10T02:07:38.557Z,0
2017-02-10T02:08:47.836Z,0
2017-02-10T02:09:58.430Z,0
2017-02-10T02:11:09.514Z,0
2017-02-10T02:12:19.246Z,0
2017-02-10T02:13:28.967Z,0
2017-02-10T02:14:39.129Z,0
2017-02-10T02:15:48.408Z,0
2017-02-10T02:16:59.063Z,0
2017-02-10T02:18:08.792Z,0
2017-02-10T02:19:18.526Z,0
2017-02-10T02:20:28.851Z,0
2017-02-10T02:21:38.568Z,0
2017-02-10T02:22:48.485Z,0
2017-02-10T02:23:58.254Z,0
2017-02-10T02:25:07.982Z,0
2017-02-10T02:26:17.712Z,0
2017-02-10T02:27:27.434Z,0
2017-02-10T02:28:37.207Z,0
2017-02-10T02:29:46.940Z,0
2017-02-10T02:30:57.115Z,0
2017-02-10T02:32:06.849Z,0
2017-02-10T02:33:16.138Z,0
2017-02-10T02:34:26.351Z,0
2017-02-10T02:35:36.070Z,0
2017-02-10T02:36:45.789Z,0
2017-02-10T02:37:56.827Z,0
2017-02-10T02:39:06.546Z,0
2017-02-10T02:40:16.318Z,0
2017-02-10T02:41:26.052Z,0
2017-02-10T02:42:35.785Z,0
2017-02-10T02:43:45.511Z,0
2017-02-10T02:44:55.680Z,0
2017-02-10T02:46:05.011Z,0
2017-02-10T02:47:15.169Z,0
2017-02-10T02:48:25.336Z,0
2017-02-10T02:49:35.063Z,0
2017-02-10T02:50:44.790Z,0
2017-02-10T02:51:55.005Z,0
2017-02-10T02:53:04.734Z,0
2017-02-10T02:54:14.017Z,0
2017-02-10T02:55:23.745Z,0
2017-02-10T02:56:34.367Z,0
2017-02-10T02:57:45.016Z,0
2017-02-10T02:58:55.186Z,0
2017-02-10T03:00:05.338Z,0
2017-02-10T03:01:15.934Z,0
2017-02-10T03:02:26.539Z,0
2017-02-10T03:03:36.754Z,0
2017-02-10T03:04:46.487Z,0
2017-02-10T03:05:56.217Z,0
2017-02-10T03:07:05.934Z,0
2017-02-10T03:08:15.654Z,0
2017-02-10T03:09:24.988Z,0
2017-02-10T03:10:35.603Z,0
2017-02-10T03:11:46.211Z,0
2017-02-10T03:12:56.371Z,0
2017-02-10T03:14:06.540Z,0
2017-02-10T03:15:17.178Z,0
2017-02-10T03:16:26.463Z,0
2017-02-10T03:17:35.745Z,0
2017-02-10T03:18:45.472Z,0
2017-02-10T03:19:55.633Z,0
2017-02-10T03:21:05.840Z,0
2017-02-10T03:22:16.441Z,0
2017-02-10T03:23:26.177Z,0
2017-02-10T03:24:35.907Z,0
2017-02-10T03:25:46.067Z,0
2017-02-10T03:26:56.001Z,0
2017-02-10T03:28:05.731Z,0
2017-02-10T03:29:15.464Z,0
2017-02-10T03:30:25.188Z,0
2017-02-10T03:31:34.902Z,0
2017-02-10T03:32:44.663Z,0
2017-02-10T03:33:54.379Z,0
2017-02-10T03:35:04.553Z,0
2017-02-10T03:36:14.271Z,0
2017-02-10T03:37:23.990Z,0
2017-02-10T03:38:34.197Z,0
2017-02-10T03:39:43.929Z,0
2017-02-10T03:40:53.656Z,0
2017-02-10T03:42:02.939Z,0
2017-02-10T03:43:13.540Z,0
2017-02-10T03:44:23.751Z,0
2017-02-10T03:45:33.028Z,0
2017-02-10T03:46:42.323Z,0
2017-02-10T03:47:52.919Z,0
2017-02-10T03:49:02.635Z,0
2017-02-10T03:50:12.417Z,0
2017-02-10T03:51:22.134Z,0
2017-02-10T03:52:31.419Z,0
2017-02-10T03:53:41.589Z,0
2017-02-10T03:54:50.876Z,0
2017-02-10T03:56:00.652Z,0
2017-02-10T03:57:10.824Z,0
2017-02-10T03:58:20.548Z,0
2017-02-10T03:59:30.273Z,0
2017-02-10T04:00:40.004Z,0
2017-02-10T04:01:49.785Z,0
2017-02-10T04:02:59.951Z,0
2017-02-10T04:04:09.229Z,0
2017-02-10T04:05:19.382Z,0
2017-02-10T04:06:29.540Z,0
2017-02-10T04:07:39.753Z,0
2017-02-10T04:08:49.920Z,0
2017-02-10T04:09:59.653Z,0
2017-02-10T04:11:10.253Z,0
2017-02-10T04:12:19.967Z,0
2017-02-10T04:13:29.299Z,0
2017-02-10T04:14:39.458Z,0
2017-02-10T04:15:50.059Z,0
2017-02-10T04:16:59.368Z,0
2017-02-10T04:18:08.654Z,0
2017-02-10T04:19:17.993Z,0
2017-02-10T04:20:27.720Z,0
2017-02-10T04:21:37.438Z,0
2017-02-10T04:22:47.598Z,0
2017-02-10T04:23:57.330Z,0
2017-02-10T04:25:07.542Z,0
2017-02-10T04:26:16.830Z,0
2017-02-10T04:27:26.116Z,0
2017-02-10T04:28:35.396Z,0
2017-02-10T04:29:44.680Z,0
2017-02-10T04:30:54.010Z,0
2017-02-10T04:32:04.169Z,0
2017-02-10T04:33:14.332Z,0
2017-02-10T04:34:24.493Z,0
2017-02-10T04:35:34.654Z,0
2017-02-10T04:36:44.864Z,0
2017-02-10T04:37:54.586Z,0
2017-02-10T04:39:04.318Z,0
2017-02-10T04:40:13.600Z,0
2017-02-10T04:41:23.323Z,0
2017-02-10T04:42:33.980Z,0
2017-02-10T04:43:43.706Z,0
2017-02-10T04:44:53.856Z,0
2017-02-10T04:46:03.577Z,0
2017-02-10T04:47:12.858Z,0
2017-02-10T04:48:22.187Z,0
2017-02-10T04:49:32.787Z,0
2017-02-10T04:50:42.954Z,0
2017-02-10T04:51:52.683Z,0
2017-02-10T04:53:01.968Z,0
2017-02-10T04:54:12.614Z,0
2017-02-10T04:55:23.231Z,0
2017-02-10T04:56:32.520Z,0
2017-02-10T04:57:42.256Z,0
2017-02-10T04:58:52.429Z,0
2017-02-10T05:00:02.208Z,0
2017-02-10T05:01:12.373Z,0
2017-02-10T05:02:22.094Z,0
2017-02-10T05:03:31.819Z,0
2017-02-10T05:04:41.546Z,0
2017-02-10T05:05:50.881Z,0
2017-02-10T05:07:00.609Z,0
2017-02-10T05:08:09.890Z,0
2017-02-10T05:09:20.054Z,0
2017-02-10T05:10:29.346Z,0
2017-02-10T05:11:38.711Z,0
2017-02-10T05:12:48.445Z,0
2017-02-10T05:13:57.730Z,0
2017-02-10T05:15:07.893Z,0
2017-02-10T05:16:17.617Z,0
2017-02-10T05:17:27.392Z,0
2017-02-10T05:18:37.119Z,0
2017-02-10T05:19:46.404Z,0
2017-02-10T05:20:55.690Z,0
2017-02-10T05:22:05.850Z,0
2017-02-10T05:23:15.623Z,0
2017-02-10T05:24:25.783Z,0
2017-02-10T05:25:35.949Z,0
2017-02-10T05:26:45.666Z,0
2017-02-10T05:27:55.387Z,0
2017-02-10T05:29:05.177Z,0
2017-02-10T05:30:14.902Z,0
2017-02-10T05:31:24.191Z,0
2017-02-10T05:32:33.913Z,0
2017-02-10T05:33:44.086Z,0
2017-02-10T05:34:53.853Z,0
2017-02-10T05:36:04.016Z,0
2017-02-10T05:37:13.741Z,0
2017-02-10T05:38:23.469Z,0
2017-02-10T05:39:34.106Z,0
2017-02-10T05:40:44.472Z,0
2017-02-10T05:41:54.626Z,0
2017-02-10T05:43:04.350Z,0
2017-02-10T05:44:14.954Z,0
2017-02-10T05:45:24.670Z,0
2017-02-10T05:46:34.003Z,0
2017-02-10T05:47:44.600Z,0
2017-02-10T05:48:54.321Z,0
2017-02-10T05:50:04.490Z,0
2017-02-10T05:51:14.227Z,0
2017-02-10T05:52:23.664Z,0
2017-02-10T05:53:34.258Z,0
2017-02-10T05:54:43.983Z,0
2017-02-10T05:55:54.148Z,0
2017-02-10T05:57:03.865Z,0
2017-02-10T05:58:13.745Z,0
2017-02-10T05:59:23.916Z,0
2017-02-10T06:00:33.651Z,0
2017-02-10T06:01:43.373Z,0
2017-02-10T06:02:53.534Z,0
2017-02-10T06:04:03.311Z,0
2017-02-10T06:05:13.933Z,0
2017-02-10T06:06:23.662Z,0
2017-02-10T06:07:32.947Z,0
2017-02-10T06:08:43.108Z,0
2017-02-10T06:09:52.878Z,0
2017-02-10T06:11:03.029Z,0
2017-02-10T06:12:12.751Z,0
2017-02-10T06:13:22.039Z,0
2017-02-10T06:14:32.628Z,0
2017-02-10T06:15:43.271Z,0
2017-02-10T06:16:52.556Z,0
2017-02-10T06:18:02.277Z,0
2017-02-10T06:19:12.455Z,0
2017-02-10T06:20:22.611Z,0
2017-02-10T06:21:32.389Z,0
2017-02-10T06:22:41.679Z,0
2017-02-10T06:23:51.856Z,0
2017-02-10T06:25:02.039Z,0
2017-02-10T06:26:11.756Z,0
2017-02-10T06:27:21.087Z,0
2017-02-10T06:28:30.816Z,0
2017-02-10T06:29:40.541Z,0
2017-02-10T06:30:49.825Z,0
2017-02-10T06:31:59.543Z,0
2017-02-10T06:33:09.316Z,0
2017-02-10T06:34:19.476Z,0
2017-02-10T06:35:29.191Z,0
2017-02-10T06:36:38.480Z,0
2017-02-10T06:37:48.653Z,0
2017-02-10T06:38:58.425Z,0
2017-02-10T06:40:08.596Z,0
2017-02-10T06:41:18.324Z,0
2017-02-10T06:42:28.046Z,0
2017-02-10T06:43:38.649Z,0
2017-02-10T06:44:48.412Z,0
2017-02-10T06:45:58.141Z,0
2017-02-10T06:47:07.441Z,0
2017-02-10T06:48:17.598Z,0
2017-02-10T06:49:26.885Z,0
2017-02-10T06:50:37.102Z,0
2017-02-10T06:51:46.832Z,0
2017-02-10T06:52:56.991Z,0
2017-02-10T06:54:07.588Z,0
2017-02-10T06:55:17.301Z,0
2017-02-10T06:56:27.522Z,0
2017-02-10T06:57:37.677Z,0
2017-02-10T06:58:47.395Z,0
2017-02-10T06:59:57.560Z,0
2017-02-10T07:01:07.275Z,0
2017-02-10T07:02:17.481Z,0
2017-02-10T07:03:27.645Z,0
2017-02-10T07:04:37.366Z,0
2017-02-10T07:05:47.081Z,0
2017-02-10T07:06:56.798Z,0
2017-02-10T07:08:06.566Z,5
2017-02-10T07:09:16.720Z,5
2017-02-10T07:10:26.881Z,5
2017-02-10T07:11:36.601Z,5
2017-02-10T07:12:46.320Z,5
2017-02-10T07:13:56.093Z,5
2017-02-10T07:15:05.373Z,5
2017-02-10T07:16:16.419Z,5
2017-02-10T07:17:26.588Z,5
2017-02-10T07:18:36.312Z,5
2017-02-10T07:19:46.992Z,5
2017-02-10T07:20:57.161Z,5
2017-02-10T07:22:06.445Z,5
2017-02-10T07:23:16.615Z,5
2017-02-10T07:24:25.928Z,5
2017-02-10T07:25:36.135Z,10
2017-02-10T07:26:47.163Z,10
2017-02-10T07:27:56.898Z,10
2017-02-10T07:29:07.065Z,10
2017-02-10T07:30:16.789Z,10
2017-02-10T07:31:26.559Z,5
2017-02-10T07:32:36.721Z,5
2017-02-10T07:33:46.003Z,5
2017-02-10T07:34:55.726Z,5
2017-02-10T07:36:05.450Z,10
2017-02-10T07:37:15.651Z,5
2017-02-10T07:38:25.374Z,5
2017-02-10T07:39:35.535Z,5
2017-02-10T07:40:44.813Z,5
2017-02-10T07:41:54.545Z,5
2017-02-10T07:43:04.745Z,5
2017-02-10T07:44:14.036Z,5
2017-02-10T07:45:23.321Z,10
2017-02-10T07:46:33.048Z,10
2017-02-10T07:47:43.206Z,10
2017-02-10T07:48:52.539Z,10
2017-02-10T07:50:02.701Z,10
2017-02-10T07:51:11.974Z,10
2017-02-10T07:52:22.136Z,10
2017-02-10T07:53:32.293Z,10
2017-02-10T07:54:42.941Z,10
2017-02-10T07:55:53.535Z,10
2017-02-10T07:57:03.303Z,10
2017-02-10T07:58:13.910Z,10
2017-02-10T07:59:23.632Z,10
2017-02-10T08:00:32.960Z,10
2017-02-10T08:01:42.686Z,15
2017-02-10T08:02:52.403Z,10
2017-02-10T08:04:02.567Z,10
2017-02-10T08:05:12.287Z,10
2017-02-10T08:06:22.162Z,10
2017-02-10T08:07:31.886Z,10
2017-02-10T08:08:41.604Z,15
2017-02-10T08:09:51.322Z,15
2017-02-10T08:11:00.603Z,15
2017-02-10T08:12:09.934Z,15
2017-02-10T08:13:19.658Z,15
2017-02-10T08:14:29.375Z,10
2017-02-10T08:15:39.532Z,10
2017-02-10T08:16:48.808Z,10
2017-02-10T08:17:59.013Z,10
2017-02-10T08:19:09.180Z,10
2017-02-10T08:20:19.336Z,15
2017-02-10T08:21:29.500Z,10
2017-02-10T08:22:39.662Z,10
2017-02-10T08:23:49.443Z,10
2017-02-10T08:24:59.618Z,10
2017-02-10T08:26:09.346Z,10
2017-02-10T08:27:18.627Z,10
2017-02-10T08:28:27.921Z,15
2017-02-10T08:29:37.744Z,15
2017-02-10T08:30:47.463Z,15
2017-02-10T08:31:57.618Z,15
2017-02-10T08:33:07.766Z,15
2017-02-10T08:34:17.935Z,15
2017-02-10T08:35:27.712Z,20
2017-02-10T08:36:37.425Z,20
2017-02-10T08:37:47.145Z,15
2017-02-10T08:38:57.312Z,15
2017-02-10T08:40:07.033Z,15
2017-02-10T08:41:18.122Z,20
2017-02-10T08:42:28.291Z,20
2017-02-10T08:43:37.584Z,20
2017-02-10T08:44:47.301Z,20
2017-02-10T08:45:57.467Z,20
2017-02-10T08:47:08.268Z,20
2017-02-10T08:48:17.557Z,20
2017-02-10T08:49:27.279Z,25
2017-02-10T08:50:37.007Z,25
2017-02-10T08:51:46.285Z,25
2017-02-10T08:52:56.053Z,25
2017-02-10T08:54:06.643Z,25
2017-02-10T08:55:15.928Z,25
2017-02-10T08:56:25.209Z,25
2017-02-10T08:57:34.949Z,25
2017-02-10T08:58:44.284Z,25
2017-02-10T08:59:54.448Z,25
2017-02-10T09:01:03.729Z,25
2017-02-10T09:02:14.338Z,25
2017-02-10T09:03:24.061Z,25
2017-02-10T09:04:33.925Z,25
2017-02-10T09:05:43.658Z,25
2017-02-10T09:06:53.832Z,25
2017-02-10T09:08:03.564Z,25
2017-02-10T09:09:13.290Z,30
2017-02-10T09:10:22.822Z,30
2017-02-10T09:11:32.103Z,30
2017-02-10T09:12:42.701Z,30
2017-02-10T09:13:51.986Z,30
2017-02-10T09:15:02.578Z,30
2017-02-10T09:16:13.325Z,30
2017-02-10T09:17:23.066Z,30
2017-02-10T09:18:32.806Z,30
2017-02-10T09:19:42.975Z,30
2017-02-10T09:20:52.704Z,35
2017-02-10T09:22:03.357Z,30
2017-02-10T09:23:13.091Z,35
2017-02-10T09:24:22.817Z,45
2017-02-10T09:25:32.540Z,45
2017-02-10T09:26:42.695Z,40
2017-02-10T09:27:52.486Z,40
2017-02-10T09:29:02.651Z,55
2017-02-10T09:30:13.262Z,45
2017-02-10T09:31:23.434Z,50
2017-02-10T09:32:33.156Z,50
2017-02-10T09:33:42.930Z,55
2017-02-10T09:34:52.665Z,55
2017-02-10T09:36:02.392Z,60
2017-02-10T09:37:11.679Z,60
2017-02-10T09:38:22.282Z,60
2017-02-10T09:39:31.623Z,60
2017-02-10T09:40:40.915Z,60
2017-02-10T09:41:50.630Z,60
2017-02-10T09:42:59.923Z,55
2017-02-10T09:44:09.208Z,60
2017-02-10T09:45:19.569Z,55
2017-02-10T09:46:29.286Z,60
2017-02-10T09:47:39.048Z,55
2017-02-10T09:48:48.336Z,60
2017-02-10T09:49:58.055Z,55
2017-02-10T09:51:08.279Z,60
2017-02-10T09:52:18.001Z,60
2017-02-10T09:53:27.721Z,55
2017-02-10T09:54:38.315Z,55
2017-02-10T09:55:48.480Z,55
2017-02-10T09:56:58.699Z,50
2017-02-10T09:58:08.875Z,45
2017-02-10T09:59:18.606Z,50
2017-02-10T10:00:28.765Z,45
2017-02-10T10:01:38.054Z,45
2017-02-10T10:02:47.970Z,45
2017-02-10T10:03:58.120Z,50
2017-02-10T10:05:07.408Z,55
2017-02-10T10:06:16.697Z,60
2017-02-10T10:07:26.854Z,60
2017-02-10T10:08:36.632Z,65
2017-02-10T10:09:46.354Z,65
2017-02-10T10:10:56.079Z,65
2017-02-10T10:12:05.805Z,65
2017-02-10T10:13:15.957Z,65
2017-02-10T10:14:25.730Z,65
2017-02-10T10:15:35.456Z,65
2017-02-10T10:16:45.177Z,65
2017-02-10T10:17:54.902Z,65
2017-02-10T10:19:05.065Z,55
2017-02-10T10:20:15.715Z,55
2017-02-10T10:21:26.762Z,60
2017-02-10T10:22:36.045Z,60
2017-02-10T10:23:45.772Z,65
2017-02-10T10:24:55.049Z,60
2017-02-10T10:26:05.255Z,60
2017-02-10T10:27:15.011Z,50
2017-02-10T10:28:25.620Z,45
2017-02-10T10:29:35.778Z,45
2017-02-10T10:30:45.511Z,45
2017-02-10T10:31:54.849Z,45
2017-02-10T10:33:04.566Z,45
2017-02-10T10:34:13.854Z,45
2017-02-10T10:35:24.018Z,45
2017-02-10T10:36:33.741Z,45
2017-02-10T10:37:44.534Z,45
2017-02-10T10:38:54.264Z,45
2017-02-10T10:40:04.431Z,40
2017-02-10T10:41:14.154Z,40
2017-02-10T10:42:24.307Z,45
2017-02-10T10:43:34.951Z,45
2017-02-10T10:44:45.120Z,50
2017-02-10T10:45:55.280Z,50
2017-02-10T10:47:05.001Z,50
2017-02-10T10:48:15.161Z,50
2017-02-10T10:49:24.497Z,55
2017-02-10T10:50:34.656Z,55
2017-02-10T10:51:44.807Z,60
2017-02-10T10:52:54.532Z,65
2017-02-10T10:54:04.249Z,65
2017-02-10T10:55:14.019Z,65
2017-02-10T10:56:23.753Z,70
2017-02-10T10:57:33.038Z,65
2017-02-10T10:58:42.772Z,60
2017-02-10T10:59:52.069Z,65
2017-02-10T11:01:01.554Z,70
2017-02-10T11:02:10.836Z,70
2017-02-10T11:03:20.589Z,65
2017-02-10T11:04:30.762Z,65
2017-02-10T11:05:41.377Z,60
2017-02-10T11:06:52.833Z,65
2017-02-10T11:08:02.562Z,70
2017-02-10T11:09:12.287Z,65
2017-02-10T11:10:21.571Z,65
2017-02-10T11:11:31.301Z,65
2017-02-10T11:12:41.078Z,60
2017-02-10T11:13:51.246Z,50
2017-02-10T11:15:01.846Z,50
2017-02-10T11:16:11.996Z,50
2017-02-10T11:17:21.278Z,50
2017-02-10T11:18:31.045Z,55
2017-02-10T11:19:41.214Z,60
2017-02-10T11:20:51.378Z,65
2017-02-10T11:22:00.656Z,60
2017-02-10T11:23:10.376Z,60
2017-02-10T11:24:20.153Z,60
2017-02-10T11:25:30.739Z,60
2017-02-10T11:26:40.459Z,70
2017-02-10T11:27:50.182Z,65
2017-02-10T11:29:00.781Z,75
2017-02-10T11:30:10.545Z,75
2017-02-10T11:31:19.829Z,70
2017-02-10T11:32:29.991Z,80
2017-02-10T11:33:39.272Z,80
2017-02-10T11:34:49.441Z,85
2017-02-10T11:35:59.654Z,80
2017-02-10T11:37:09.808Z,85
2017-02-10T11:38:19.537Z,90
2017-02-10T11:39:29.261Z,90
2017-02-10T11:40:38.551Z,90
2017-02-10T11:41:48.325Z,95
2017-02-10T11:42:58.488Z,85
2017-02-10T11:44:08.659Z,85
2017-02-10T11:45:18.382Z,80
2017-02-10T11:46:28.976Z,80
2017-02-10T11:47:38.310Z,85
2017-02-10T11:48:48.038Z,85
2017-02-10T11:49:58.645Z,80
2017-02-10T11:51:09.250Z,75
2017-02-10T11:52:18.969Z,75
2017-02-10T11:53:28.740Z,70
2017-02-10T11:54:38.466Z,65
2017-02-10T11:55:48.191Z,60
2017-02-10T11:56:57.904Z,55
2017-02-10T11:58:08.496Z,55
2017-02-10T11:59:19.150Z,60
2017-02-10T12:00:29.324Z,60
2017-02-10T12:01:38.611Z,55
2017-02-10T12:02:48.333Z,60
2017-02-10T12:03:58.065Z,65
2017-02-10T12:05:08.284Z,65
2017-02-10T12:06:18.012Z,65
2017-02-10T12:07:28.166Z,65
2017-02-10T12:08:37.448Z,65
2017-02-10T12:09:47.181Z,55
2017-02-10T12:10:56.954Z,50
2017-02-10T12:12:07.559Z,50
2017-02-10T12:13:17.285Z,40
2017-02-10T12:14:27.009Z,40
2017-02-10T12:15:37.610Z,40
2017-02-10T12:16:48.268Z,40
2017-02-10T12:17:57.986Z,45
2017-02-10T12:19:07.706Z,55
2017-02-10T12:20:17.431Z,55
2017-02-10T12:21:27.161Z,50
2017-02-10T12:22:36.930Z,50
2017-02-10T12:23:46.648Z,50
2017-02-10T12:24:57.263Z,45
2017-02-10T12:26:06.982Z,45
2017-02-10T12:27:16.262Z,45
2017-02-10T12:28:26.040Z,45
2017-02-10T12:29:35.321Z,45
2017-02-10T12:30:45.488Z,35
2017-02-10T12:31:56.092Z,30
2017-02-10T12:33:06.694Z,30
2017-02-10T12:34:16.465Z,30
2017-02-10T12:35:26.632Z,30
2017-02-10T12:36:36.347Z,30
2017-02-10T12:37:45.636Z,30
2017-02-10T12:38:55.796Z,30
2017-02-10T12:40:05.564Z,30
2017-02-10T12:41:14.857Z,35
2017-02-10T12:42:24.589Z,45
2017-02-10T12:43:34.744Z,40
2017-02-10T12:44:44.912Z,40
2017-02-10T12:45:54.680Z,40
2017-02-10T12:47:03.968Z,35
2017-02-10T12:48:14.125Z,40
2017-02-10T12:49:23.411Z,35
2017-02-10T12:50:33.574Z,40
2017-02-10T12:51:42.907Z,40
2017-02-10T12:52:53.067Z,35
2017-02-10T12:54:03.228Z,35
2017-02-10T12:55:13.387Z,40
2017-02-10T12:56:23.105Z,45
2017-02-10T12:57:33.242Z,40
2017-02-10T12:58:44.291Z,40
2017-02-10T12:59:54.024Z,45
2017-02-10T13:01:04.197Z,40
2017-02-10T13:02:13.926Z,40
2017-02-10T13:03:23.740Z,40
2017-02-10T13:04:33.930Z,40
2017-02-10T13:05:43.651Z,35
2017-02-10T13:06:52.934Z,30
2017-02-10T13:08:02.669Z,25
2017-02-10T13:09:12.881Z,25
2017-02-10T13:10:22.167Z,25
2017-02-10T13:11:32.330Z,25
2017-02-10T13:12:42.049Z,30
2017-02-10T13:13:51.777Z,25
2017-02-10T13:15:01.124Z,40
2017-02-10T13:16:10.849Z,35
2017-02-10T13:17:20.582Z,40
2017-02-10T13:18:30.733Z,40
2017-02-10T13:19:40.892Z,45
2017-02-10T13:20:50.657Z,35
2017-02-10T13:21:59.938Z,35
2017-02-10T13:23:10.095Z,30
2017-02-10T13:24:19.388Z,25
2017-02-10T13:25:29.545Z,25
2017-02-10T13:26:39.323Z,20
2017-02-10T13:27:49.929Z,20
2017-02-10T13:28:59.661Z,20
2017-02-10T13:30:09.387Z,15
2017-02-10T13:31:18.680Z,15
2017-02-10T13:32:28.453Z,15
2017-02-10T13:33:38.183Z,15
2017-02-10T13:34:47.908Z,15
2017-02-10T13:35:58.069Z,15
2017-02-10T13:37:07.793Z,15
2017-02-10T13:38:17.995Z,15
2017-02-10T13:39:27.718Z,15
2017-02-10T13:40:37.872Z,15
2017-02-10T13:41:48.031Z,15
2017-02-10T13:42:57.748Z,15
2017-02-10T13:44:07.519Z,15
2017-02-10T13:45:17.678Z,15
2017-02-10T13:46:27.399Z,20
2017-02-10T13:47:36.687Z,25
2017-02-10T13:48:46.854Z,30
2017-02-10T13:49:56.191Z,30
2017-02-10T13:51:05.918Z,25
2017-02-10T13:52:16.078Z,25
2017-02-10T13:53:26.233Z,30
2017-02-10T13:54:35.951Z,30
2017-02-10T13:55:45.286Z,25
2017-02-10T13:56:54.570Z,30
2017-02-10T13:58:04.730Z,35
2017-02-10T13:59:14.892Z,30
2017-02-10T14:00:24.620Z,30
2017-02-10T14:01:34.837Z,30
2017-02-10T14:02:44.580Z,30
2017-02-10T14:03:54.313Z,30
2017-02-10T14:05:04.058Z,30
2017-02-10T14:06:13.780Z,30
2017-02-10T14:07:23.543Z,30
2017-02-10T14:08:33.274Z,25
2017-02-10T14:09:42.563Z,25
2017-02-10T14:10:52.724Z,25
2017-02-10T14:12:02.015Z,25
2017-02-10T14:13:11.358Z,25
2017-02-10T14:14:21.098Z,20
2017-02-10T14:15:31.257Z,20
2017-02-10T14:16:41.426Z,20
2017-02-10T14:17:51.147Z,20
2017-02-10T14:19:00.915Z,20
2017-02-10T14:20:10.632Z,20
2017-02-10T14:21:21.221Z,20
2017-02-10T14:22:31.388Z,20
2017-02-10T14:23:40.668Z,20
2017-02-10T14:24:52.358Z,15
2017-02-10T14:26:01.644Z,15
2017-02-10T14:27:10.928Z,15
2017-02-10T14:28:21.521Z,20
2017-02-10T14:29:30.815Z,15
2017-02-10T14:30:40.152Z,15
2017-02-10T14:31:49.873Z,20
2017-02-10T14:33:00.045Z,15
2017-02-10T14:34:09.784Z,20
2017-02-10T14:35:19.511Z,15
2017-02-10T14:36:30.602Z,10
2017-02-10T14:37:40.326Z,15
2017-02-10T14:38:50.484Z,15
2017-02-10T14:40:00.638Z,15
2017-02-10T14:41:10.370Z,10
2017-02-10T14:42:20.184Z,10
2017-02-10T14:43:29.911Z,10
2017-02-10T14:44:40.519Z,10
2017-02-10T14:45:50.248Z,10
2017-02-10T14:47:00.415Z,10
2017-02-10T14:48:10.193Z,10
2017-02-10T14:49:19.920Z,5
2017-02-10T14:50:30.080Z,5
2017-02-10T14:51:39.385Z,10
2017-02-10T14:52:48.668Z,10
2017-02-10T14:53:59.327Z,10
2017-02-10T14:55:09.060Z,10
2017-02-10T14:56:18.344Z,10
2017-02-10T14:57:28.499Z,10
2017-02-10T14:58:38.224Z,10
2017-02-10T14:59:47.553Z,5
2017-02-10T15:00:57.280Z,5
2017-02-10T15:02:07.003Z,10
2017-02-10T15:03:16.727Z,5
2017-02-10T15:04:26.454Z,5
2017-02-10T15:05:36.679Z,5
2017-02-10T15:06:46.839Z,5
2017-02-10T15:07:56.996Z,5
2017-02-10T15:09:07.163Z,5
2017-02-10T15:10:16.881Z,5
2017-02-10T15:11:27.091Z,5
2017-02-10T15:12:36.852Z,5
2017-02-10T15:13:47.015Z,5
2017-02-10T15:14:57.616Z,5
2017-02-10T15:16:06.907Z,5
2017-02-10T15:17:17.116Z,5
2017-02-10T15:18:26.843Z,5
2017-02-10T15:19:37.010Z,5
2017-02-10T15:20:46.741Z,5
2017-02-10T15:21:56.025Z,5
2017-02-10T15:23:06.231Z,5
2017-02-10T15:24:16.829Z,5
2017-02-10T15:25:26.547Z,5
2017-02-10T15:26:36.714Z,0
2017-02-10T15:27:46.877Z,0
2017-02-10T15:28:56.653Z,0
2017-02-10T15:30:06.374Z,0
2017-02-10T15:31:15.664Z,0
2017-02-10T15:32:25.393Z,0
2017-02-10T15:33:35.553Z,0
2017-02-10T15:34:46.211Z,0
2017-02-10T15:35:56.380Z,0
2017-02-10T15:37:06.106Z,0
2017-02-10T15:38:16.275Z,0
2017-02-10T15:39:26.443Z,0
2017-02-10T15:40:36.214Z,0
2017-02-10T15:41:45.937Z,0
2017-02-10T15:42:56.544Z,0
2017-02-10T15:44:06.261Z,0
2017-02-10T15:45:15.994Z,0
2017-02-10T15:46:25.775Z,0
2017-02-10T15:47:35.945Z,0
2017-02-10T15:48:46.110Z,0
2017-02-10T15:49:55.842Z,0
2017-02-10T15:51:05.568Z,0
2017-02-10T15:52:15.349Z,0
2017-02-10T15:53:24.676Z,0
2017-02-10T15:54:34.408Z,0
2017-02-10T15:55:44.565Z,0
2017-02-10T15:56:53.846Z,0
2017-02-10T15:58:03.170Z,0
2017-02-10T15:59:13.767Z,0
2017-02-10T16:00:23.937Z,0
2017-02-10T16:01:33.662Z,0
2017-02-10T16:02:43.826Z,0
2017-02-10T16:03:53.166Z,0
2017-02-10T16:05:02.895Z,0
2017-02-10T16:06:13.519Z,0
2017-02-10T16:07:22.808Z,0
2017-02-10T16:08:32.525Z,0
2017-02-10T16:09:42.733Z,0
2017-02-10T16:10:53.339Z,0
2017-02-10T16:12:02.633Z,0
2017-02-10T16:13:12.355Z,0
2017-02-10T16:14:22.520Z,0
2017-02-10T16:15:31.857Z,0
2017-02-10T16:16:41.583Z,0
2017-02-10T16:17:51.741Z,0
2017-02-10T16:19:01.912Z,0
2017-02-10T16:20:11.643Z,0
2017-02-10T16:21:22.290Z,0
2017-02-10T16:22:31.581Z,0
2017-02-10T16:23:40.865Z,0
2017-02-10T16:24:51.034Z,0
2017-02-10T16:26:01.640Z,0
2017-02-10T16:27:10.981Z,0
2017-02-10T16:28:21.150Z,0
2017-02-10T16:29:31.741Z,0
2017-02-10T16:30:42.347Z,0
2017-02-10T16:31:51.631Z,0
2017-02-10T16:33:01.410Z,0
2017-02-10T16:34:11.124Z,0
2017-02-10T16:35:20.413Z,0
2017-02-10T16:36:30.142Z,0
2017-02-10T16:37:39.425Z,0
2017-02-10T16:38:49.200Z,0
2017-02-10T16:39:58.920Z,0
2017-02-10T16:41:09.526Z,0
2017-02-10T16:42:19.683Z,0
2017-02-10T16:43:30.713Z,0
2017-02-10T16:44:40.938Z,0
2017-02-10T16:45:51.103Z,0
2017-02-10T16:47:01.279Z,0
2017-02-10T16:48:11.449Z,0
2017-02-10T16:49:22.046Z,0
2017-02-10T16:50:31.374Z,0
2017-02-10T16:51:41.525Z,0
2017-02-10T16:52:51.250Z,0
2017-02-10T16:54:00.972Z,0
2017-02-10T16:55:10.711Z,0
2017-02-10T16:56:20.489Z,0
2017-02-10T16:57:30.650Z,0